createdAt,value
2022-08-16T00:10:20.655Z,22.96
2022-08-16T00:20:25.322Z,22.93
2022-08-16T00:30:45.851Z,22.85
2022-08-16T00:41:05.981Z,22.71
2022-08-16T00:51:41.012Z,22.71
2022-08-16T01:02:30.365Z,22.64
2022-08-16T01:13:06.374Z,22.56
2022-08-16T01:24:51.631Z,22.57
2022-08-16T01:34:56.948Z,22.47
2022-08-16T01:45:40.419Z,22.48
2022-08-16T01:56:24.264Z,22.41
2022-08-16T02:07:17.253Z,22.25
2022-08-16T02:17:57.748Z,22.10
2022-08-16T02:28:23.691Z,21.93
2022-08-16T02:38:55.582Z,21.78
2022-08-16T02:49:07.142Z,21.88
2022-08-16T02:59:19.184Z,21.91
2022-08-16T03:09:32.654Z,21.86
2022-08-16T03:21:23.957Z,21.83
2022-08-16T03:31:53.558Z,21.62
2022-08-16T03:54:17.930Z,21.78
2022-08-16T04:04:54.580Z,21.87
2022-08-16T04:15:24.819Z,21.73
2022-08-16T04:26:22.591Z,21.80
2022-08-16T04:37:07.526Z,21.88
2022-08-16T04:47:36.403Z,21.95
2022-08-16T04:58:43.768Z,22.12
2022-08-16T05:08:47.189Z,22.32
2022-08-16T05:19:16.374Z,22.57
2022-08-16T05:29:57.837Z,22.78
2022-08-16T05:40:20.125Z,22.98
2022-08-16T05:51:07.929Z,23.20
2022-08-16T06:01:23.100Z,23.40
2022-08-16T06:11:50.434Z,23.52
2022-08-16T06:23:02.835Z,23.60
2022-08-16T06:33:41.726Z,23.54
2022-08-16T06:44:08.016Z,23.65
2022-08-16T06:54:35.980Z,23.84
2022-08-16T07:04:54.382Z,24.11
2022-08-16T07:15:50.550Z,24.33
2022-08-16T07:25:29.220Z,24.65
2022-08-16T07:35:51.465Z,24.97
2022-08-16T07:46:39.647Z,25.55
2022-08-16T07:56:54.863Z,26.20
2022-08-16T08:07:09.610Z,26.71
2022-08-16T08:17:43.010Z,26.91
2022-08-16T08:39:55.317Z,27.42
2022-08-16T09:25:11.180Z,28.75
2022-08-16T09:48:11.150Z,29.01
2022-08-16T09:59:20.976Z,29.17
2022-08-16T10:10:30.760Z,29.31
2022-08-16T10:21:09.431Z,29.28
2022-08-16T10:32:31.950Z,29.01
2022-08-16T10:54:32.111Z,28.43
2022-08-16T11:29:15.268Z,28.21
2022-08-16T11:39:38.279Z,28.18
2022-08-16T11:50:52.959Z,28.20
2022-08-16T12:25:21.651Z,28.02
2022-08-16T12:47:37.301Z,27.90
2022-08-16T13:22:05.397Z,27.98
2022-08-16T13:44:00.606Z,27.63
2022-08-16T13:55:18.113Z,27.66
2022-08-16T14:06:11.432Z,27.87
2022-08-16T14:28:10.451Z,28.31
2022-08-16T14:39:52.630Z,28.48
2022-08-16T14:50:53.695Z,28.56
2022-08-16T16:12:51.261Z,28.03
2022-08-16T16:23:27.221Z,28.04
2022-08-16T16:35:16.234Z,27.85
2022-08-16T16:57:16.919Z,27.47
2022-08-16T17:08:04.777Z,27.28
2022-08-16T17:40:25.477Z,27.02
2022-08-16T17:51:39.590Z,26.83
2022-08-16T18:14:51.324Z,26.40
2022-08-16T18:57:45.500Z,25.42
2022-08-16T19:31:23.862Z,24.84
2022-08-16T19:53:42.604Z,24.65
2022-08-16T20:03:46.391Z,24.46
2022-08-16T20:14:25.517Z,24.35
2022-08-16T20:24:34.554Z,24.28
2022-08-16T20:35:03.523Z,24.17
2022-08-16T20:45:08.371Z,24.00
2022-08-16T20:55:22.414Z,23.86
2022-08-16T21:05:31.918Z,23.83
2022-08-16T21:16:30.210Z,23.68
2022-08-16T21:27:19.220Z,23.69
2022-08-16T21:37:36.323Z,23.51
2022-08-16T21:48:11.015Z,23.41
2022-08-16T21:58:25.197Z,23.17
2022-08-16T22:08:50.982Z,23.16
2022-08-16T22:19:11.805Z,23.12
2022-08-16T22:29:48.105Z,22.94
2022-08-16T22:40:40.579Z,22.71
2022-08-16T22:50:56.977Z,22.56
2022-08-16T23:01:22.140Z,22.58
2022-08-16T23:12:08.106Z,22.56
2022-08-16T23:23:17.628Z,22.41
2022-08-16T23:33:19.393Z,22.33
2022-08-16T23:43:34.684Z,22.36
2022-08-16T23:54:03.771Z,22.32
